sensor_id;sensor_type;location;lat;lon;timestamp;P1;durP1;ratioP1;P2;durP2;ratioP2
71462;SDS011;59266;52.608;13.260;2023-04-15T00:02:15;40.42;;;14.95;;
71462;SDS011;59266;52.608;13.260;2023-04-15T00:04:47;40.88;;;14.75;;
71462;SDS011;59266;52.608;13.260;2023-04-15T00:07:14;40.17;;;15.57;;
71462;SDS011;59266;52.608;13.260;2023-04-15T00:09:42;39.38;;;15.73;;
71462;SDS011;59266;52.608;13.260;2023-04-15T00:12:10;34.53;;;15.10;;
71462;SDS011;59266;52.608;13.260;2023-04-15T00:14:37;36.05;;;15.93;;
71462;SDS011;59266;52.608;13.260;2023-04-15T00:17:03;39.47;;;15.68;;
71462;SDS011;59266;52.608;13.260;2023-04-15T00:19:30;35.40;;;15.13;;
71462;SDS011;59266;52.608;13.260;2023-04-15T00:21:58;41.85;;;15.48;;
71462;SDS011;59266;52.608;13.260;2023-04-15T00:24:25;41.70;;;16.70;;
71462;SDS011;59266;52.608;13.260;2023-04-15T00:26:52;37.20;;;14.75;;
71462;SDS011;59266;52.608;13.260;2023-04-15T00:29:19;38.13;;;16.27;;
71462;SDS011;59266;52.608;13.260;2023-04-15T00:31:46;43.20;;;16.15;;
71462;SDS011;59266;52.608;13.260;2023-04-15T00:34:13;41.67;;;16.35;;
71462;SDS011;59266;52.608;13.260;2023-04-15T00:36:40;46.28;;;16.92;;
71462;SDS011;59266;52.608;13.260;2023-04-15T00:39:07;44.10;;;17.15;;
71462;SDS011;59266;52.608;13.260;2023-04-15T00:41:33;42.55;;;17.33;;
71462;SDS011;59266;52.608;13.260;2023-04-15T00:44:00;42.20;;;17.48;;
71462;SDS011;59266;52.608;13.260;2023-04-15T00:46:27;43.10;;;16.80;;
71462;SDS011;59266;52.608;13.260;2023-04-15T00:48:58;44.10;;;17.25;;
71462;SDS011;59266;52.608;13.260;2023-04-15T00:51:26;47.13;;;18.20;;
71462;SDS011;59266;52.608;13.260;2023-04-15T00:53:52;42.08;;;16.30;;
71462;SDS011;59266;52.608;13.260;2023-04-15T00:56:19;47.22;;;18.15;;
71462;SDS011;59266;52.608;13.260;2023-04-15T00:58:50;46.60;;;17.70;;
71462;SDS011;59266;52.608;13.260;2023-04-15T01:01:19;46.40;;;17.70;;
71462;SDS011;59266;52.608;13.260;2023-04-15T01:03:48;47.15;;;18.05;;
71462;SDS011;59266;52.608;13.260;2023-04-15T01:06:18;51.97;;;18.83;;
71462;SDS011;59266;52.608;13.260;2023-04-15T01:08:45;46.83;;;18.50;;
71462;SDS011;59266;52.608;13.260;2023-04-15T01:11:12;52.03;;;19.02;;
71462;SDS011;59266;52.608;13.260;2023-04-15T01:13:39;52.92;;;19.00;;
71462;SDS011;59266;52.608;13.260;2023-04-15T01:16:06;50.45;;;19.88;;
71462;SDS011;59266;52.608;13.260;2023-04-15T01:18:36;62.10;;;18.88;;
71462;SDS011;59266;52.608;13.260;2023-04-15T01:21:04;50.78;;;19.15;;
71462;SDS011;59266;52.608;13.260;2023-04-15T01:23:34;57.40;;;20.23;;
71462;SDS011;59266;52.608;13.260;2023-04-15T01:26:04;56.58;;;19.20;;
71462;SDS011;59266;52.608;13.260;2023-04-15T01:28:33;56.45;;;19.10;;
71462;SDS011;59266;52.608;13.260;2023-04-15T01:31:11;53.90;;;18.13;;
71462;SDS011;59266;52.608;13.260;2023-04-15T01:33:39;56.13;;;19.17;;
71462;SDS011;59266;52.608;13.260;2023-04-15T01:36:08;54.00;;;18.65;;
71462;SDS011;59266;52.608;13.260;2023-04-15T01:38:36;56.72;;;19.33;;
71462;SDS011;59266;52.608;13.260;2023-04-15T01:41:03;60.78;;;20.42;;
71462;SDS011;59266;52.608;13.260;2023-04-15T01:43:35;54.17;;;18.42;;
71462;SDS011;59266;52.608;13.260;2023-04-15T01:46:05;59.42;;;20.90;;
71462;SDS011;59266;52.608;13.260;2023-04-15T01:48:32;59.47;;;20.00;;
71462;SDS011;59266;52.608;13.260;2023-04-15T01:50:59;66.03;;;22.42;;
71462;SDS011;59266;52.608;13.260;2023-04-15T01:53:26;59.95;;;20.35;;
71462;SDS011;59266;52.608;13.260;2023-04-15T01:55:53;60.83;;;20.30;;
71462;SDS011;59266;52.608;13.260;2023-04-15T01:58:19;61.05;;;19.52;;
71462;SDS011;59266;52.608;13.260;2023-04-15T02:00:47;61.35;;;19.75;;
71462;SDS011;59266;52.608;13.260;2023-04-15T02:03:14;58.85;;;20.48;;
71462;SDS011;59266;52.608;13.260;2023-04-15T02:05:41;58.47;;;20.80;;
71462;SDS011;59266;52.608;13.260;2023-04-15T02:08:08;63.00;;;20.95;;
71462;SDS011;59266;52.608;13.260;2023-04-15T02:10:35;65.45;;;21.38;;
71462;SDS011;59266;52.608;13.260;2023-04-15T02:13:02;56.08;;;20.60;;
71462;SDS011;59266;52.608;13.260;2023-04-15T02:15:29;58.92;;;20.40;;
71462;SDS011;59266;52.608;13.260;2023-04-15T02:17:56;53.28;;;19.10;;
71462;SDS011;59266;52.608;13.260;2023-04-15T02:20:24;57.72;;;20.17;;
71462;SDS011;59266;52.608;13.260;2023-04-15T02:22:51;60.30;;;19.88;;
71462;SDS011;59266;52.608;13.260;2023-04-15T02:25:18;62.95;;;20.98;;
71462;SDS011;59266;52.608;13.260;2023-04-15T02:27:45;54.50;;;19.52;;
71462;SDS011;59266;52.608;13.260;2023-04-15T02:30:12;61.67;;;20.33;;
71462;SDS011;59266;52.608;13.260;2023-04-15T02:32:39;62.45;;;20.60;;
71462;SDS011;59266;52.608;13.260;2023-04-15T02:35:07;58.13;;;19.90;;
71462;SDS011;59266;52.608;13.260;2023-04-15T02:37:34;67.25;;;21.02;;
71462;SDS011;59266;52.608;13.260;2023-04-15T02:42:39;52.30;;;18.35;;
71462;SDS011;59266;52.608;13.260;2023-04-15T02:45:06;57.42;;;19.75;;
71462;SDS011;59266;52.608;13.260;2023-04-15T02:47:34;56.55;;;20.42;;
71462;SDS011;59266;52.608;13.260;2023-04-15T02:50:02;58.60;;;20.30;;
71462;SDS011;59266;52.608;13.260;2023-04-15T02:52:29;57.97;;;19.92;;
71462;SDS011;59266;52.608;13.260;2023-04-15T02:54:56;67.38;;;20.80;;
71462;SDS011;59266;52.608;13.260;2023-04-15T02:57:26;66.88;;;21.05;;
71462;SDS011;59266;52.608;13.260;2023-04-15T02:59:56;57.53;;;19.52;;
71462;SDS011;59266;52.608;13.260;2023-04-15T03:02:23;55.22;;;19.65;;
71462;SDS011;59266;52.608;13.260;2023-04-15T03:04:49;77.35;;;21.75;;
71462;SDS011;59266;52.608;13.260;2023-04-15T03:07:17;60.78;;;21.48;;
71462;SDS011;59266;52.608;13.260;2023-04-15T03:09:45;72.40;;;21.38;;
71462;SDS011;59266;52.608;13.260;2023-04-15T03:12:13;65.82;;;20.88;;
71462;SDS011;59266;52.608;13.260;2023-04-15T03:14:40;61.08;;;20.95;;
71462;SDS011;59266;52.608;13.260;2023-04-15T03:17:06;57.33;;;20.48;;
71462;SDS011;59266;52.608;13.260;2023-04-15T03:19:33;58.40;;;19.17;;
71462;SDS011;59266;52.608;13.260;2023-04-15T03:22:00;62.60;;;21.95;;
71462;SDS011;59266;52.608;13.260;2023-04-15T03:24:26;54.95;;;20.27;;
71462;SDS011;59266;52.608;13.260;2023-04-15T03:26:55;62.33;;;19.70;;
71462;SDS011;59266;52.608;13.260;2023-04-15T03:29:23;69.93;;;20.52;;
71462;SDS011;59266;52.608;13.260;2023-04-15T03:31:50;56.97;;;19.85;;
71462;SDS011;59266;52.608;13.260;2023-04-15T03:34:17;61.53;;;20.52;;
71462;SDS011;59266;52.608;13.260;2023-04-15T03:36:45;60.00;;;21.55;;
71462;SDS011;59266;52.608;13.260;2023-04-15T03:39:12;58.72;;;19.30;;
71462;SDS011;59266;52.608;13.260;2023-04-15T03:41:38;52.72;;;19.75;;
71462;SDS011;59266;52.608;13.260;2023-04-15T03:44:05;49.50;;;19.80;;
71462;SDS011;59266;52.608;13.260;2023-04-15T03:46:32;54.97;;;20.23;;
71462;SDS011;59266;52.608;13.260;2023-04-15T03:48:59;61.42;;;20.67;;
71462;SDS011;59266;52.608;13.260;2023-04-15T03:51:26;61.45;;;20.40;;
71462;SDS011;59266;52.608;13.260;2023-04-15T03:53:52;53.72;;;19.75;;
71462;SDS011;59266;52.608;13.260;2023-04-15T03:56:19;52.05;;;20.30;;
71462;SDS011;59266;52.608;13.260;2023-04-15T03:58:46;57.85;;;19.75;;
71462;SDS011;59266;52.608;13.260;2023-04-15T04:01:12;59.58;;;18.45;;
71462;SDS011;59266;52.608;13.260;2023-04-15T04:03:39;52.92;;;18.45;;
71462;SDS011;59266;52.608;13.260;2023-04-15T04:06:06;50.35;;;19.25;;
71462;SDS011;59266;52.608;13.260;2023-04-15T04:08:33;51.03;;;19.42;;
71462;SDS011;59266;52.608;13.260;2023-04-15T04:11:00;50.50;;;19.48;;
71462;SDS011;59266;52.608;13.260;2023-04-15T04:13:27;47.80;;;18.23;;
71462;SDS011;59266;52.608;13.260;2023-04-15T04:15:54;48.22;;;18.40;;
71462;SDS011;59266;52.608;13.260;2023-04-15T04:18:21;52.85;;;18.80;;
71462;SDS011;59266;52.608;13.260;2023-04-15T04:20:48;55.03;;;19.58;;
71462;SDS011;59266;52.608;13.260;2023-04-15T04:23:15;50.55;;;19.52;;
71462;SDS011;59266;52.608;13.260;2023-04-15T04:25:41;50.65;;;20.20;;
71462;SDS011;59266;52.608;13.260;2023-04-15T04:28:08;48.50;;;18.80;;
71462;SDS011;59266;52.608;13.260;2023-04-15T04:30:35;48.60;;;17.80;;
71462;SDS011;59266;52.608;13.260;2023-04-15T04:33:02;51.78;;;18.88;;
71462;SDS011;59266;52.608;13.260;2023-04-15T04:35:29;50.45;;;18.17;;
71462;SDS011;59266;52.608;13.260;2023-04-15T04:37:55;46.40;;;18.77;;
71462;SDS011;59266;52.608;13.260;2023-04-15T04:40:22;44.45;;;17.83;;
71462;SDS011;59266;52.608;13.260;2023-04-15T04:42:50;45.90;;;18.83;;
71462;SDS011;59266;52.608;13.260;2023-04-15T04:45:16;46.78;;;19.52;;
71462;SDS011;59266;52.608;13.260;2023-04-15T04:47:43;42.83;;;18.30;;
71462;SDS011;59266;52.608;13.260;2023-04-15T04:50:10;43.00;;;17.77;;
71462;SDS011;59266;52.608;13.260;2023-04-15T04:52:37;48.25;;;18.75;;
71462;SDS011;59266;52.608;13.260;2023-04-15T04:55:03;51.35;;;19.33;;
71462;SDS011;59266;52.608;13.260;2023-04-15T04:57:30;52.28;;;18.98;;
71462;SDS011;59266;52.608;13.260;2023-04-15T04:59:57;47.50;;;17.90;;
71462;SDS011;59266;52.608;13.260;2023-04-15T05:02:24;47.35;;;18.17;;
71462;SDS011;59266;52.608;13.260;2023-04-15T05:04:52;47.17;;;17.27;;
71462;SDS011;59266;52.608;13.260;2023-04-15T05:07:19;42.30;;;18.50;;
71462;SDS011;59266;52.608;13.260;2023-04-15T05:09:46;37.97;;;17.15;;
71462;SDS011;59266;52.608;13.260;2023-04-15T05:12:13;48.53;;;19.15;;
71462;SDS011;59266;52.608;13.260;2023-04-15T05:14:40;48.95;;;19.02;;
71462;SDS011;59266;52.608;13.260;2023-04-15T05:17:07;45.97;;;17.40;;
71462;SDS011;59266;52.608;13.260;2023-04-15T05:19:34;40.28;;;17.58;;
71462;SDS011;59266;52.608;13.260;2023-04-15T05:22:01;42.65;;;16.70;;
71462;SDS011;59266;52.608;13.260;2023-04-15T05:24:28;40.45;;;16.55;;
71462;SDS011;59266;52.608;13.260;2023-04-15T05:26:54;46.78;;;18.00;;
71462;SDS011;59266;52.608;13.260;2023-04-15T05:29:22;43.67;;;18.25;;
71462;SDS011;59266;52.608;13.260;2023-04-15T05:31:49;39.88;;;18.10;;
71462;SDS011;59266;52.608;13.260;2023-04-15T05:34:16;38.60;;;17.20;;
71462;SDS011;59266;52.608;13.260;2023-04-15T05:36:42;39.28;;;16.52;;
71462;SDS011;59266;52.608;13.260;2023-04-15T05:39:09;38.08;;;16.05;;
71462;SDS011;59266;52.608;13.260;2023-04-15T05:41:36;40.72;;;16.80;;
71462;SDS011;59266;52.608;13.260;2023-04-15T05:44:03;35.08;;;16.13;;
71462;SDS011;59266;52.608;13.260;2023-04-15T05:46:30;32.60;;;15.50;;
71462;SDS011;59266;52.608;13.260;2023-04-15T05:48:57;38.40;;;16.30;;
71462;SDS011;59266;52.608;13.260;2023-04-15T05:51:23;34.10;;;15.70;;
71462;SDS011;59266;52.608;13.260;2023-04-15T05:53:51;35.95;;;16.58;;
71462;SDS011;59266;52.608;13.260;2023-04-15T05:56:17;32.80;;;16.10;;
71462;SDS011;59266;52.608;13.260;2023-04-15T05:58:45;34.13;;;15.55;;
71462;SDS011;59266;52.608;13.260;2023-04-15T06:01:12;31.95;;;15.35;;
71462;SDS011;59266;52.608;13.260;2023-04-15T06:03:38;30.05;;;13.90;;
71462;SDS011;59266;52.608;13.260;2023-04-15T06:06:06;30.63;;;15.25;;
71462;SDS011;59266;52.608;13.260;2023-04-15T06:08:36;28.67;;;14.40;;
71462;SDS011;59266;52.608;13.260;2023-04-15T06:11:02;27.88;;;14.23;;
71462;SDS011;59266;52.608;13.260;2023-04-15T06:13:29;28.95;;;14.40;;
71462;SDS011;59266;52.608;13.260;2023-04-15T06:15:56;26.65;;;12.70;;
71462;SDS011;59266;52.608;13.260;2023-04-15T06:18:23;24.02;;;12.57;;
71462;SDS011;59266;52.608;13.260;2023-04-15T06:20:49;22.80;;;11.65;;
71462;SDS011;59266;52.608;13.260;2023-04-15T06:23:16;21.73;;;12.02;;
71462;SDS011;59266;52.608;13.260;2023-04-15T06:25:43;17.80;;;10.30;;
71462;SDS011;59266;52.608;13.260;2023-04-15T06:28:10;22.02;;;12.23;;
71462;SDS011;59266;52.608;13.260;2023-04-15T06:30:37;21.27;;;11.32;;
71462;SDS011;59266;52.608;13.260;2023-04-15T06:33:04;20.48;;;10.77;;
71462;SDS011;59266;52.608;13.260;2023-04-15T06:35:31;19.23;;;10.18;;
71462;SDS011;59266;52.608;13.260;2023-04-15T06:37:59;16.83;;;9.30;;
71462;SDS011;59266;52.608;13.260;2023-04-15T06:40:25;17.58;;;9.23;;
71462;SDS011;59266;52.608;13.260;2023-04-15T06:42:53;15.45;;;8.60;;
71462;SDS011;59266;52.608;13.260;2023-04-15T06:45:20;17.77;;;9.63;;
71462;SDS011;59266;52.608;13.260;2023-04-15T06:47:46;20.83;;;9.52;;
71462;SDS011;59266;52.608;13.260;2023-04-15T06:50:13;22.13;;;9.27;;
71462;SDS011;59266;52.608;13.260;2023-04-15T06:52:39;17.48;;;9.48;;
71462;SDS011;59266;52.608;13.260;2023-04-15T06:55:06;16.58;;;9.52;;
71462;SDS011;59266;52.608;13.260;2023-04-15T06:57:33;19.17;;;9.23;;
71462;SDS011;59266;52.608;13.260;2023-04-15T07:00:01;21.67;;;8.85;;
71462;SDS011;59266;52.608;13.260;2023-04-15T07:02:31;14.32;;;8.27;;
71462;SDS011;59266;52.608;13.260;2023-04-15T07:04:57;14.73;;;8.60;;
71462;SDS011;59266;52.608;13.260;2023-04-15T07:07:24;15.70;;;7.97;;
71462;SDS011;59266;52.608;13.260;2023-04-15T07:09:51;15.05;;;8.00;;
71462;SDS011;59266;52.608;13.260;2023-04-15T07:12:19;15.43;;;8.50;;
71462;SDS011;59266;52.608;13.260;2023-04-15T07:14:46;18.80;;;8.65;;
71462;SDS011;59266;52.608;13.260;2023-04-15T07:17:12;13.48;;;7.97;;
71462;SDS011;59266;52.608;13.260;2023-04-15T07:19:41;15.60;;;8.52;;
71462;SDS011;59266;52.608;13.260;2023-04-15T07:22:07;16.58;;;8.45;;
71462;SDS011;59266;52.608;13.260;2023-04-15T07:24:34;15.35;;;8.57;;
71462;SDS011;59266;52.608;13.260;2023-04-15T07:27:01;15.27;;;8.57;;
71462;SDS011;59266;52.608;13.260;2023-04-15T07:29:29;16.75;;;9.23;;
71462;SDS011;59266;52.608;13.260;2023-04-15T07:31:57;15.68;;;8.85;;
71462;SDS011;59266;52.608;13.260;2023-04-15T07:34:24;17.17;;;8.82;;
71462;SDS011;59266;52.608;13.260;2023-04-15T07:36:52;15.40;;;9.15;;
71462;SDS011;59266;52.608;13.260;2023-04-15T07:39:18;18.33;;;9.50;;
71462;SDS011;59266;52.608;13.260;2023-04-15T07:41:45;15.27;;;9.40;;
71462;SDS011;59266;52.608;13.260;2023-04-15T07:44:11;15.00;;;8.80;;
71462;SDS011;59266;52.608;13.260;2023-04-15T07:46:38;18.05;;;9.52;;
71462;SDS011;59266;52.608;13.260;2023-04-15T07:49:05;16.90;;;9.60;;
71462;SDS011;59266;52.608;13.260;2023-04-15T07:51:32;15.70;;;9.07;;
71462;SDS011;59266;52.608;13.260;2023-04-15T07:53:59;15.85;;;10.05;;
71462;SDS011;59266;52.608;13.260;2023-04-15T07:56:26;19.67;;;9.75;;
71462;SDS011;59266;52.608;13.260;2023-04-15T07:58:53;17.05;;;9.82;;
71462;SDS011;59266;52.608;13.260;2023-04-15T08:01:19;16.40;;;9.77;;
71462;SDS011;59266;52.608;13.260;2023-04-15T08:03:47;17.35;;;9.68;;
71462;SDS011;59266;52.608;13.260;2023-04-15T08:06:14;17.83;;;10.18;;
71462;SDS011;59266;52.608;13.260;2023-04-15T08:08:40;17.70;;;10.18;;
71462;SDS011;59266;52.608;13.260;2023-04-15T08:11:08;16.23;;;9.70;;
71462;SDS011;59266;52.608;13.260;2023-04-15T08:13:35;15.75;;;9.10;;
71462;SDS011;59266;52.608;13.260;2023-04-15T08:19:07;17.52;;;9.48;;
71462;SDS011;59266;52.608;13.260;2023-04-15T08:21:35;19.50;;;9.35;;
71462;SDS011;59266;52.608;13.260;2023-04-15T08:24:01;17.20;;;10.18;;
71462;SDS011;59266;52.608;13.260;2023-04-15T08:26:29;18.50;;;9.93;;
71462;SDS011;59266;52.608;13.260;2023-04-15T08:28:56;16.50;;;9.63;;
71462;SDS011;59266;52.608;13.260;2023-04-15T08:31:25;16.67;;;9.68;;
71462;SDS011;59266;52.608;13.260;2023-04-15T08:33:52;17.88;;;9.75;;
71462;SDS011;59266;52.608;13.260;2023-04-15T08:36:20;17.95;;;10.27;;
71462;SDS011;59266;52.608;13.260;2023-04-15T08:38:47;15.60;;;9.48;;
71462;SDS011;59266;52.608;13.260;2023-04-15T08:41:20;18.55;;;10.70;;
71462;SDS011;59266;52.608;13.260;2023-04-15T08:43:51;17.90;;;9.93;;
71462;SDS011;59266;52.608;13.260;2023-04-15T08:46:27;19.50;;;10.68;;
71462;SDS011;59266;52.608;13.260;2023-04-15T08:48:57;19.50;;;10.10;;
71462;SDS011;59266;52.608;13.260;2023-04-15T08:51:24;18.25;;;10.25;;
71462;SDS011;59266;52.608;13.260;2023-04-15T08:53:51;16.83;;;10.15;;
71462;SDS011;59266;52.608;13.260;2023-04-15T08:56:18;18.92;;;10.90;;
71462;SDS011;59266;52.608;13.260;2023-04-15T08:58:49;18.98;;;10.20;;
71462;SDS011;59266;52.608;13.260;2023-04-15T09:01:16;17.20;;;10.00;;
71462;SDS011;59266;52.608;13.260;2023-04-15T09:03:43;18.13;;;9.25;;
71462;SDS011;59266;52.608;13.260;2023-04-15T09:06:12;16.73;;;9.32;;
71462;SDS011;59266;52.608;13.260;2023-04-15T09:08:42;17.40;;;9.38;;
71462;SDS011;59266;52.608;13.260;2023-04-15T09:11:12;18.48;;;10.65;;
71462;SDS011;59266;52.608;13.260;2023-04-15T09:13:45;15.40;;;9.18;;
71462;SDS011;59266;52.608;13.260;2023-04-15T09:16:12;18.20;;;9.95;;
71462;SDS011;59266;52.608;13.260;2023-04-15T09:18:39;19.30;;;10.25;;
71462;SDS011;59266;52.608;13.260;2023-04-15T09:21:06;16.88;;;10.48;;
71462;SDS011;59266;52.608;13.260;2023-04-15T09:23:34;17.20;;;9.95;;
71462;SDS011;59266;52.608;13.260;2023-04-15T09:26:01;18.17;;;10.43;;
71462;SDS011;59266;52.608;13.260;2023-04-15T09:28:29;17.17;;;9.60;;
71462;SDS011;59266;52.608;13.260;2023-04-15T09:30:59;17.45;;;9.43;;
71462;SDS011;59266;52.608;13.260;2023-04-15T09:33:27;16.85;;;9.43;;
71462;SDS011;59266;52.608;13.260;2023-04-15T09:35:56;17.30;;;10.07;;
71462;SDS011;59266;52.608;13.260;2023-04-15T09:38:23;17.25;;;10.43;;
71462;SDS011;59266;52.608;13.260;2023-04-15T09:40:51;16.25;;;9.73;;
71462;SDS011;59266;52.608;13.260;2023-04-15T09:43:21;18.83;;;10.43;;
71462;SDS011;59266;52.608;13.260;2023-04-15T09:45:48;16.98;;;9.93;;
71462;SDS011;59266;52.608;13.260;2023-04-15T09:48:18;16.70;;;9.10;;
71462;SDS011;59266;52.608;13.260;2023-04-15T09:50:52;17.77;;;10.10;;
71462;SDS011;59266;52.608;13.260;2023-04-15T09:53:20;17.38;;;10.52;;
71462;SDS011;59266;52.608;13.260;2023-04-15T09:55:52;17.17;;;9.23;;
71462;SDS011;59266;52.608;13.260;2023-04-15T09:58:28;18.60;;;9.73;;
71462;SDS011;59266;52.608;13.260;2023-04-15T10:00:58;20.58;;;12.10;;
71462;SDS011;59266;52.608;13.260;2023-04-15T10:03:28;16.90;;;10.32;;
71462;SDS011;59266;52.608;13.260;2023-04-15T10:05:57;16.55;;;10.10;;
71462;SDS011;59266;52.608;13.260;2023-04-15T10:08:29;17.27;;;10.40;;
71462;SDS011;59266;52.608;13.260;2023-04-15T10:10:58;18.98;;;10.27;;
71462;SDS011;59266;52.608;13.260;2023-04-15T10:13:31;19.55;;;10.43;;
71462;SDS011;59266;52.608;13.260;2023-04-15T10:16:04;18.38;;;10.98;;
71462;SDS011;59266;52.608;13.260;2023-04-15T10:18:42;20.92;;;10.75;;
71462;SDS011;59266;52.608;13.260;2023-04-15T10:21:11;18.85;;;10.60;;
71462;SDS011;59266;52.608;13.260;2023-04-15T10:23:41;19.20;;;10.70;;
71462;SDS011;59266;52.608;13.260;2023-04-15T10:28:40;17.70;;;10.05;;
71462;SDS011;59266;52.608;13.260;2023-04-15T10:31:07;16.67;;;10.15;;
71462;SDS011;59266;52.608;13.260;2023-04-15T10:33:35;17.50;;;9.80;;
71462;SDS011;59266;52.608;13.260;2023-04-15T10:36:03;19.65;;;10.52;;
71462;SDS011;59266;52.608;13.260;2023-04-15T10:38:38;18.08;;;10.48;;
71462;SDS011;59266;52.608;13.260;2023-04-15T10:41:17;22.25;;;11.10;;
71462;SDS011;59266;52.608;13.260;2023-04-15T10:46:35;20.85;;;11.07;;
71462;SDS011;59266;52.608;13.260;2023-04-15T10:49:10;21.63;;;11.38;;
71462;SDS011;59266;52.608;13.260;2023-04-15T10:51:42;19.90;;;10.15;;
71462;SDS011;59266;52.608;13.260;2023-04-15T10:59:31;20.45;;;11.70;;
71462;SDS011;59266;52.608;13.260;2023-04-15T11:02:02;17.13;;;10.35;;
71462;SDS011;59266;52.608;13.260;2023-04-15T11:12:52;18.70;;;10.50;;
71462;SDS011;59266;52.608;13.260;2023-04-15T11:18:19;18.95;;;10.40;;
71462;SDS011;59266;52.608;13.260;2023-04-15T11:20:51;16.63;;;10.07;;
71462;SDS011;59266;52.608;13.260;2023-04-15T11:26:04;18.70;;;10.40;;
71462;SDS011;59266;52.608;13.260;2023-04-15T11:28:35;18.13;;;10.77;;
71462;SDS011;59266;52.608;13.260;2023-04-15T11:31:07;21.25;;;10.95;;
71462;SDS011;59266;52.608;13.260;2023-04-15T11:33:53;20.17;;;10.95;;
71462;SDS011;59266;52.608;13.260;2023-04-15T11:36:22;17.55;;;10.85;;
71462;SDS011;59266;52.608;13.260;2023-04-15T11:38:51;18.00;;;10.40;;
71462;SDS011;59266;52.608;13.260;2023-04-15T11:41:21;17.67;;;10.55;;
71462;SDS011;59266;52.608;13.260;2023-04-15T11:43:51;15.85;;;10.23;;
71462;SDS011;59266;52.608;13.260;2023-04-15T11:46:19;17.48;;;10.45;;
71462;SDS011;59266;52.608;13.260;2023-04-15T11:48:47;19.98;;;10.68;;
71462;SDS011;59266;52.608;13.260;2023-04-15T11:51:13;17.45;;;9.63;;
71462;SDS011;59266;52.608;13.260;2023-04-15T11:56:18;18.70;;;10.13;;
71462;SDS011;59266;52.608;13.260;2023-04-15T11:58:46;17.75;;;9.43;;
71462;SDS011;59266;52.608;13.260;2023-04-15T12:01:16;16.77;;;9.25;;
71462;SDS011;59266;52.608;13.260;2023-04-15T12:03:45;16.17;;;9.95;;
71462;SDS011;59266;52.608;13.260;2023-04-15T12:06:32;16.08;;;9.63;;
71462;SDS011;59266;52.608;13.260;2023-04-15T12:11:33;16.00;;;8.68;;
71462;SDS011;59266;52.608;13.260;2023-04-15T12:14:10;17.33;;;9.52;;
71462;SDS011;59266;52.608;13.260;2023-04-15T12:16:39;16.92;;;8.68;;
71462;SDS011;59266;52.608;13.260;2023-04-15T12:19:36;16.42;;;8.80;;
71462;SDS011;59266;52.608;13.260;2023-04-15T12:22:03;15.55;;;8.57;;
71462;SDS011;59266;52.608;13.260;2023-04-15T12:24:32;16.13;;;8.82;;
71462;SDS011;59266;52.608;13.260;2023-04-15T12:27:01;18.10;;;9.85;;
71462;SDS011;59266;52.608;13.260;2023-04-15T12:29:35;16.13;;;9.38;;
71462;SDS011;59266;52.608;13.260;2023-04-15T12:34:31;15.48;;;9.07;;
71462;SDS011;59266;52.608;13.260;2023-04-15T12:37:00;18.42;;;9.07;;
71462;SDS011;59266;52.608;13.260;2023-04-15T12:39:33;15.52;;;9.18;;
71462;SDS011;59266;52.608;13.260;2023-04-15T12:42:02;16.75;;;9.50;;
71462;SDS011;59266;52.608;13.260;2023-04-15T12:44:29;15.80;;;8.43;;
71462;SDS011;59266;52.608;13.260;2023-04-15T12:46:56;19.20;;;9.90;;
71462;SDS011;59266;52.608;13.260;2023-04-15T12:49:24;15.60;;;9.50;;
71462;SDS011;59266;52.608;13.260;2023-04-15T12:51:53;15.93;;;9.40;;
71462;SDS011;59266;52.608;13.260;2023-04-15T12:54:20;17.00;;;9.50;;
71462;SDS011;59266;52.608;13.260;2023-04-15T12:56:48;17.63;;;9.32;;
71462;SDS011;59266;52.608;13.260;2023-04-15T12:59:16;16.60;;;9.32;;
71462;SDS011;59266;52.608;13.260;2023-04-15T13:01:46;17.40;;;9.82;;
71462;SDS011;59266;52.608;13.260;2023-04-15T13:04:14;15.70;;;9.82;;
71462;SDS011;59266;52.608;13.260;2023-04-15T13:06:42;18.08;;;10.23;;
71462;SDS011;59266;52.608;13.260;2023-04-15T13:09:08;17.60;;;10.70;;
71462;SDS011;59266;52.608;13.260;2023-04-15T13:11:35;17.50;;;9.57;;
71462;SDS011;59266;52.608;13.260;2023-04-15T13:14:03;20.25;;;10.35;;
71462;SDS011;59266;52.608;13.260;2023-04-15T13:16:30;17.52;;;10.13;;
71462;SDS011;59266;52.608;13.260;2023-04-15T13:18:58;17.75;;;9.73;;
71462;SDS011;59266;52.608;13.260;2023-04-15T13:21:26;17.05;;;9.82;;
71462;SDS011;59266;52.608;13.260;2023-04-15T13:23:53;17.83;;;10.32;;
71462;SDS011;59266;52.608;13.260;2023-04-15T13:26:19;17.85;;;10.40;;
71462;SDS011;59266;52.608;13.260;2023-04-15T13:28:46;15.85;;;9.40;;
71462;SDS011;59266;52.608;13.260;2023-04-15T13:31:13;17.83;;;10.32;;
71462;SDS011;59266;52.608;13.260;2023-04-15T13:33:40;17.20;;;10.32;;
71462;SDS011;59266;52.608;13.260;2023-04-15T13:36:06;18.65;;;10.68;;
71462;SDS011;59266;52.608;13.260;2023-04-15T13:38:34;16.58;;;9.43;;
71462;SDS011;59266;52.608;13.260;2023-04-15T13:41:01;19.08;;;10.27;;
71462;SDS011;59266;52.608;13.260;2023-04-15T13:43:28;17.75;;;10.20;;
71462;SDS011;59266;52.608;13.260;2023-04-15T13:45:54;17.27;;;10.40;;
71462;SDS011;59266;52.608;13.260;2023-04-15T13:48:21;16.95;;;9.80;;
71462;SDS011;59266;52.608;13.260;2023-04-15T13:50:48;18.63;;;10.13;;
71462;SDS011;59266;52.608;13.260;2023-04-15T13:53:15;17.65;;;10.45;;
71462;SDS011;59266;52.608;13.260;2023-04-15T13:55:42;16.67;;;10.02;;
71462;SDS011;59266;52.608;13.260;2023-04-15T13:58:08;17.25;;;9.50;;
71462;SDS011;59266;52.608;13.260;2023-04-15T14:00:36;16.58;;;9.95;;
71462;SDS011;59266;52.608;13.260;2023-04-15T14:03:03;15.48;;;9.85;;
71462;SDS011;59266;52.608;13.260;2023-04-15T14:05:31;16.65;;;10.00;;
71462;SDS011;59266;52.608;13.260;2023-04-15T14:07:58;16.58;;;9.32;;
71462;SDS011;59266;52.608;13.260;2023-04-15T14:10:25;18.42;;;9.88;;
71462;SDS011;59266;52.608;13.260;2023-04-15T14:12:51;17.05;;;9.32;;
71462;SDS011;59266;52.608;13.260;2023-04-15T14:15:18;17.00;;;9.45;;
71462;SDS011;59266;52.608;13.260;2023-04-15T14:17:45;17.50;;;9.85;;
71462;SDS011;59266;52.608;13.260;2023-04-15T14:20:11;16.80;;;9.77;;
71462;SDS011;59266;52.608;13.260;2023-04-15T14:22:41;16.63;;;10.02;;
71462;SDS011;59266;52.608;13.260;2023-04-15T14:25:08;17.92;;;10.07;;
71462;SDS011;59266;52.608;13.260;2023-04-15T14:27:42;16.27;;;9.90;;
71462;SDS011;59266;52.608;13.260;2023-04-15T14:30:09;17.13;;;9.38;;
71462;SDS011;59266;52.608;13.260;2023-04-15T14:32:36;17.65;;;9.80;;
71462;SDS011;59266;52.608;13.260;2023-04-15T14:35:03;17.75;;;9.45;;
71462;SDS011;59266;52.608;13.260;2023-04-15T14:37:31;18.20;;;10.35;;
71462;SDS011;59266;52.608;13.260;2023-04-15T14:39:58;19.50;;;10.20;;
71462;SDS011;59266;52.608;13.260;2023-04-15T14:42:24;18.63;;;10.68;;
71462;SDS011;59266;52.608;13.260;2023-04-15T14:44:51;18.40;;;10.30;;
71462;SDS011;59266;52.608;13.260;2023-04-15T14:47:18;18.73;;;11.02;;
71462;SDS011;59266;52.608;13.260;2023-04-15T14:49:44;18.42;;;11.18;;
71462;SDS011;59266;52.608;13.260;2023-04-15T14:52:12;17.77;;;10.48;;
71462;SDS011;59266;52.608;13.260;2023-04-15T14:54:39;19.88;;;10.77;;
71462;SDS011;59266;52.608;13.260;2023-04-15T14:57:06;19.10;;;10.23;;